createdAt,value
2023-04-05T00:00:37.149Z,73.60
2023-04-05T00:05:39.079Z,75.53
2023-04-05T00:10:41.142Z,74.80
2023-04-05T00:15:44.318Z,74.13
2023-04-05T00:20:45.998Z,73.61
2023-04-05T00:25:47.859Z,74.01
2023-04-05T00:30:51.997Z,76.97
2023-04-05T00:35:53.971Z,77.93
2023-04-05T00:40:55.843Z,78.08
2023-04-05T00:45:58.953Z,77.52
2023-04-05T00:51:00.791Z,76.68
2023-04-05T00:56:02.532Z,76.08
2023-04-05T01:01:14.023Z,75.16
2023-04-05T01:06:23.361Z,74.90
2023-04-05T01:11:26.213Z,75.88
2023-04-05T01:16:29.222Z,76.51
2023-04-05T01:22:13.866Z,76.78
2023-04-05T01:27:17.150Z,77.71
2023-04-05T01:32:25.186Z,77.05
2023-04-05T01:37:27.809Z,77.06
2023-04-05T01:42:29.665Z,77.80
2023-04-05T01:47:32.787Z,76.71
2023-04-05T01:52:34.549Z,76.59
2023-04-05T01:57:36.274Z,77.90
2023-04-05T02:02:39.476Z,78.13
2023-04-05T02:07:41.190Z,78.80
2023-04-05T02:12:45.210Z,78.70
2023-04-05T02:17:49.102Z,79.34
2023-04-05T02:22:51.746Z,80.20
2023-04-05T02:27:53.464Z,80.96
2023-04-05T02:32:58.006Z,80.84
2023-04-05T02:37:59.849Z,81.79
2023-04-05T02:43:01.970Z,82.50
2023-04-05T02:48:05.482Z,83.54
2023-04-05T02:53:07.403Z,84.00
2023-04-05T02:58:09.313Z,83.93
2023-04-05T03:03:17.916Z,83.94
2023-04-05T03:08:19.936Z,83.28
2023-04-05T03:13:32.677Z,83.46
2023-04-05T03:18:36.184Z,83.95
2023-04-05T03:23:43.141Z,84.33
2023-04-05T03:28:46.493Z,83.85
2023-04-05T03:33:50.427Z,84.10
2023-04-05T03:38:52.711Z,84.87
2023-04-05T03:43:56.581Z,85.45
2023-04-05T03:49:00.443Z,85.61
2023-04-05T03:54:02.168Z,85.83
2023-04-05T03:59:07.498Z,85.92
2023-04-05T04:04:11.562Z,85.67
2023-04-05T04:09:14.332Z,86.09
2023-04-05T04:14:16.140Z,86.59
2023-04-05T04:19:33.178Z,86.65
2023-04-05T04:24:40.673Z,87.68
2023-04-05T04:30:08.062Z,87.20
2023-04-05T04:35:27.869Z,87.40
2023-04-05T04:40:39.016Z,86.38
2023-04-05T04:45:56.967Z,86.73
2023-04-05T04:51:23.140Z,86.49
2023-04-05T04:56:24.840Z,86.76
2023-04-05T05:01:28.508Z,86.05
2023-04-05T05:06:31.652Z,86.48
2023-04-05T05:11:33.371Z,85.80
2023-04-05T05:16:35.850Z,86.09
2023-04-05T05:21:38.941Z,85.85
2023-04-05T05:26:40.689Z,84.13
2023-04-05T05:31:42.385Z,84.54
2023-04-05T05:36:45.505Z,83.69
2023-04-05T05:41:47.660Z,83.26
2023-04-05T05:46:49.488Z,81.70
2023-04-05T05:51:52.891Z,81.45
2023-04-05T05:56:54.618Z,80.27
2023-04-05T06:01:56.497Z,75.56
2023-04-05T06:06:59.597Z,69.94
2023-04-05T06:12:01.317Z,72.38
2023-04-05T06:17:03.010Z,74.00
2023-04-05T06:22:06.042Z,74.74
2023-04-05T06:27:07.857Z,75.58
2023-04-05T06:32:09.588Z,75.20
2023-04-05T06:37:12.650Z,76.37
2023-04-05T06:42:14.384Z,77.02
2023-04-05T06:47:21.373Z,77.69
2023-04-05T06:52:24.569Z,77.45
2023-04-05T06:57:27.003Z,75.94
2023-04-05T07:02:28.711Z,74.74
2023-04-05T07:07:31.857Z,71.16
2023-04-05T07:12:33.536Z,65.82
2023-04-05T07:17:35.252Z,58.90
2023-04-05T07:22:38.283Z,47.63
2023-04-05T07:27:40.032Z,43.78
2023-04-05T07:32:41.707Z,43.30
2023-04-05T07:37:44.741Z,40.03
2023-04-05T07:42:46.419Z,35.63
2023-04-05T07:47:48.119Z,33.45
2023-04-05T07:52:51.291Z,31.66
2023-04-05T07:57:53.559Z,27.42
2023-04-05T08:02:56.253Z,25.06
2023-04-05T08:08:00.439Z,24.25
2023-04-05T08:13:02.137Z,26.11
2023-04-05T08:18:04.051Z,27.52
2023-04-05T08:23:07.770Z,25.01
2023-04-05T08:28:09.592Z,23.19
2023-04-05T08:33:11.504Z,22.55
2023-04-05T08:38:14.554Z,21.40
2023-04-05T08:43:20.590Z,20.40
2023-04-05T08:48:22.323Z,19.29
2023-04-05T08:53:25.359Z,18.26
2023-04-05T08:58:27.243Z,17.85
2023-04-05T09:03:31.376Z,17.71
2023-04-05T09:08:34.510Z,16.88
2023-04-05T09:13:36.241Z,15.31
2023-04-05T09:18:37.982Z,16.14
2023-04-05T09:23:41.892Z,16.99
2023-04-05T09:28:43.850Z,15.17
2023-04-05T09:33:45.699Z,16.94
2023-04-05T09:38:48.735Z,17.83
2023-04-05T09:43:50.596Z,18.07
2023-04-05T09:48:52.297Z,15.89
2023-04-05T09:53:59.723Z,15.16
2023-04-05T09:59:02.286Z,15.23
2023-04-05T10:04:04.109Z,14.14
2023-04-05T10:09:08.224Z,15.12
2023-04-05T10:14:09.943Z,13.85
2023-04-05T10:19:16.400Z,14.04
2023-04-05T10:24:29.336Z,14.18
2023-04-05T10:29:35.999Z,15.23
2023-04-05T10:34:42.322Z,16.49
2023-04-05T10:39:45.953Z,18.00
2023-04-05T10:44:51.503Z,18.96
2023-04-05T10:49:54.046Z,16.45
2023-04-05T10:54:58.988Z,18.96
2023-04-05T11:00:00.892Z,18.16
2023-04-05T11:05:04.764Z,21.74
2023-04-05T11:10:08.743Z,23.23
2023-04-05T11:15:28.295Z,24.52
2023-04-05T11:20:39.961Z,26.51
2023-04-05T11:25:47.454Z,26.65
2023-04-05T11:30:51.509Z,25.96
2023-04-05T11:36:00.597Z,26.95
2023-04-05T11:41:07.713Z,27.12
2023-04-05T11:46:09.710Z,26.76
2023-04-05T11:51:11.888Z,27.51
2023-04-05T11:56:16.048Z,28.12
2023-04-05T12:01:18.859Z,29.46
2023-04-05T12:06:22.107Z,30.26
2023-04-05T12:11:25.723Z,30.24
2023-04-05T12:16:29.285Z,30.49
2023-04-05T12:21:31.114Z,32.53
2023-04-05T12:26:35.941Z,31.70
2023-04-05T12:31:38.810Z,31.38
2023-04-05T12:36:43.933Z,31.03
2023-04-05T12:41:56.329Z,31.34
2023-04-05T12:47:00.595Z,32.46
2023-04-05T12:52:02.950Z,31.19
2023-04-05T12:57:08.916Z,32.56
2023-04-05T13:02:10.787Z,31.94
2023-04-05T13:07:12.499Z,32.85
2023-04-05T13:12:15.513Z,32.19
2023-04-05T13:17:17.205Z,31.91
2023-04-05T13:22:18.929Z,31.23
2023-04-05T13:27:22.572Z,30.05
2023-04-05T13:32:24.383Z,30.46
2023-04-05T13:37:26.450Z,30.32
2023-04-05T13:42:29.528Z,30.04
2023-04-05T13:47:31.255Z,29.72
2023-04-05T13:52:33.012Z,30.12
2023-04-05T13:57:36.059Z,29.29
2023-04-05T14:02:38.896Z,31.01
2023-04-05T14:07:40.736Z,29.39
2023-04-05T14:12:43.763Z,29.41
2023-04-05T14:17:45.785Z,29.48
2023-04-05T14:22:47.454Z,31.57
2023-04-05T14:27:50.549Z,30.36
2023-04-05T14:32:52.299Z,30.51
2023-04-05T14:37:53.997Z,31.61
2023-04-05T14:42:56.990Z,31.63
2023-04-05T14:47:58.730Z,32.19
2023-04-05T14:53:01.569Z,32.98
2023-04-05T14:58:04.607Z,33.89
2023-04-05T15:03:06.852Z,33.18
2023-04-05T15:08:08.813Z,32.81
2023-04-05T15:13:12.088Z,33.77
2023-04-05T15:18:13.923Z,34.40
2023-04-05T15:23:15.860Z,34.42
2023-04-05T15:28:18.970Z,33.23
2023-04-05T15:33:20.910Z,32.86
2023-04-05T15:38:22.601Z,33.53
2023-04-05T15:43:25.757Z,32.61
2023-04-05T15:48:27.503Z,33.64
2023-04-05T15:53:29.229Z,33.81
2023-04-05T15:58:32.253Z,33.95
2023-04-05T16:03:34.029Z,34.14
2023-04-05T16:08:35.727Z,34.33
2023-04-05T16:13:38.731Z,35.16
2023-04-05T16:18:40.476Z,33.66
2023-04-05T16:23:42.305Z,33.79
2023-04-05T16:28:45.417Z,34.11
2023-04-05T16:33:47.097Z,34.15
2023-04-05T16:38:48.852Z,34.07
2023-04-05T16:43:52.600Z,33.66
2023-04-05T16:48:54.256Z,34.53
2023-04-05T16:53:55.965Z,34.19
2023-04-05T16:58:59.090Z,33.89
2023-04-05T17:04:00.831Z,34.58
2023-04-05T17:09:03.505Z,34.52
2023-04-05T17:14:07.648Z,34.49
2023-04-05T17:19:09.390Z,34.62
2023-04-05T17:24:11.090Z,34.98
2023-04-05T17:29:14.196Z,35.19
2023-04-05T17:34:16.719Z,35.58
2023-04-05T17:39:18.387Z,35.52
2023-04-05T17:44:21.588Z,36.38
2023-04-05T17:49:23.280Z,36.49
2023-04-05T17:54:24.970Z,37.35
2023-04-05T17:59:28.070Z,37.26
2023-04-05T18:04:29.822Z,37.83
2023-04-05T18:09:32.188Z,38.92
2023-04-05T18:14:36.826Z,40.15
2023-04-05T18:19:39.772Z,39.86
2023-04-05T18:24:42.281Z,39.50
2023-04-05T18:29:46.614Z,39.41
2023-04-05T18:37:40.842Z,41.63
2023-04-05T18:43:37.284Z,41.59
2023-04-05T18:48:39.339Z,41.14
2023-04-05T18:53:41.129Z,41.48
2023-04-05T18:58:44.272Z,42.79
2023-04-05T19:03:46.152Z,43.24
2023-04-05T19:08:48.126Z,46.10
2023-04-05T19:13:52.361Z,49.17
2023-04-05T19:18:54.150Z,48.99
2023-04-05T19:23:56.039Z,48.54
2023-04-05T19:28:59.114Z,48.67
2023-04-05T19:34:01.288Z,48.71
2023-04-05T19:39:03.925Z,48.68
2023-04-05T19:44:10.108Z,48.24
2023-04-05T19:49:18.366Z,47.69
2023-04-05T19:54:20.207Z,49.23
2023-04-05T19:59:28.834Z,50.07
2023-04-05T20:04:34.291Z,50.84
2023-04-05T20:09:37.544Z,51.04
2023-04-05T20:14:41.583Z,53.26
2023-04-05T20:19:56.749Z,55.51
2023-04-05T20:24:58.412Z,54.38
2023-04-05T20:30:01.571Z,53.51
2023-04-05T20:35:05.279Z,55.26
2023-04-05T20:40:08.052Z,57.05
2023-04-05T20:45:11.734Z,58.65
2023-04-05T20:50:13.755Z,60.60
2023-04-05T20:55:15.717Z,61.24
2023-04-05T21:00:19.588Z,62.60
2023-04-05T21:05:21.397Z,63.64
2023-04-05T21:10:23.264Z,61.49
2023-04-05T21:15:31.088Z,63.47
2023-04-05T21:20:34.400Z,64.08
2023-04-05T21:25:36.146Z,65.51
2023-04-05T21:30:39.240Z,65.90
2023-04-05T21:35:40.996Z,66.61
2023-04-05T21:40:44.446Z,69.82
2023-04-05T21:45:47.641Z,69.57
2023-04-05T21:50:49.370Z,70.20
2023-04-05T21:55:51.131Z,71.31
2023-04-05T22:00:54.252Z,70.73
2023-04-05T22:05:56.193Z,68.99
2023-04-05T22:10:57.931Z,69.53
2023-04-05T22:16:01.242Z,70.07
2023-04-05T22:21:03.030Z,72.05
2023-04-05T22:26:04.782Z,72.44
2023-04-05T22:31:07.897Z,71.79
2023-04-05T22:36:09.933Z,72.62
2023-04-05T22:41:11.728Z,72.76
2023-04-05T22:46:14.854Z,72.81
2023-04-05T22:51:16.698Z,72.32
2023-04-05T22:56:21.284Z,72.67
2023-04-05T23:01:24.361Z,72.96
2023-04-05T23:06:26.241Z,75.13
2023-04-05T23:11:27.950Z,77.14
2023-04-05T23:16:30.988Z,77.92
2023-04-05T23:21:32.777Z,78.64
2023-04-05T23:26:34.530Z,78.84
2023-04-05T23:31:37.618Z,79.43
2023-04-05T23:36:39.345Z,78.98
2023-04-05T23:41:41.128Z,78.90
2023-04-05T23:46:44.239Z,79.74
2023-04-05T23:51:46.092Z,80.36
2023-04-05T23:56:48.218Z,80.50
